e-Mail: Password: Lost your password? Click here. - Register a new user

c h a v e z j u a r e z . c o m

Weather - Tiempo - Wetter - Temps

METAR DATA MMMX (Mexico City)

Mexico City / Licenci, Mexico (MMMX) 19-26N 099-06W
Sep 21, 2020 - 07:45 PM EDT / 2020.09.21 2345 UTC
Wind: from the NNE (020 degrees) at 14 MPH (12 KT):0
Visibility: 7 mile(s):0
Sky conditions: overcast
Weather: light rain with thunder; Cumulonimbus clouds, lightning observed
Temperature: 64 F (18 C)
Dew Point: 51 F (11 C)
Relative Humidity: 63%
Pressure (altimeter): 30.31 in. Hg (1026 hPa)
Pressure tendency: 0.03 inches (1.0 hPa) higher than three hours ago
ob: MMMX 212345Z 02012KT 7SM -TSRA BKN020CB OVC080 18/11 A3031 TEMPO 4SM TSRA RMK SLP111 52010 913 60015 8/96/ HZY OCNL LTGICCG N RA INTMT
cycle: 0

Mexico City

St. Prex




Current weather alarms for Switzerland


www.wetteralarm.ch